Time;durP1;ratioP1;P1;durP2;ratioP2;P2;SDS_P1;SDS_P2;PMS_P1;PMS_P2;Temp;Humidity;BMP_temperature;BMP_pressure;BME280_temperature;BME280_humidity;BME280_pressure;Samples;Min_cycle;Max_cycle;Signal;HPM_P1;HPM_P2
2021/01/27 00:00:48;;;;;;;24.15;16.27;;;;;;;-0.34;88.31;98702.57;1734668;82;21158;-61
2021/01/27 00:03:16;;;;;;;26.48;17.07;;;;;;;-0.35;88.33;98700.88;1738770;81;21079;-60
2021/01/27 00:05:47;;;;;;;25.60;16.55;;;;;;;-0.36;88.34;98697.90;1738143;82;22234;-61
2021/01/27 00:08:15;;;;;;;26.48;16.42;;;;;;;-0.37;88.37;98700.03;1735073;82;21517;-58
2021/01/27 00:10:43;;;;;;;31.40;17.70;;;;;;;-0.37;88.48;98701.31;1738436;82;21191;-61
2021/01/27 00:13:13;;;;;;;25.27;17.07;;;;;;;-0.39;88.56;98701.71;1736847;82;21770;-61
2021/01/27 00:15:41;;;;;;;27.40;16.60;;;;;;;-0.39;88.68;98700.86;1735396;82;21247;-61
2021/01/27 00:18:12;;;;;;;25.08;16.30;;;;;;;-0.40;88.67;98705.13;1737383;81;21508;-61
2021/01/27 00:20:40;;;;;;;25.40;16.65;;;;;;;-0.40;88.74;98696.61;1736328;82;21096;-61
2021/01/27 00:23:08;;;;;;;26.70;15.50;;;;;;;-0.45;88.82;98694.08;1736491;82;21076;-61
2021/01/27 00:25:37;;;;;;;26.52;16.65;;;;;;;-0.45;88.79;98695.36;1736732;82;21139;-62
2021/01/27 00:28:06;;;;;;;27.70;16.17;;;;;;;-0.47;88.77;98703.42;1738035;82;21188;-61
2021/01/27 00:30:38;;;;;;;23.65;16.17;;;;;;;-0.48;88.75;98706.83;1736582;82;21373;-61
2021/01/27 00:33:10;;;;;;;24.67;15.60;;;;;;;-0.49;88.85;98711.52;1734782;82;21461;-61
2021/01/27 00:35:41;;;;;;;24.18;16.07;;;;;;;-0.50;88.87;98713.64;1735152;82;21109;-61
2021/01/27 00:38:17;;;;;;;20.27;14.85;;;;;;;-0.47;88.81;98711.50;1737428;81;21310;-61
2021/01/27 00:40:46;;;;;;;23.90;15.63;;;;;;;-0.47;88.76;98713.63;1737713;81;21076;-61
2021/01/27 00:43:14;;;;;;;27.30;16.60;;;;;;;-0.47;88.79;98713.63;1737003;81;22239;-61
2021/01/27 00:45:42;;;;;;;24.47;16.50;;;;;;;-0.49;88.87;98706.83;1734837;81;21132;-60
2021/01/27 00:48:10;;;;;;;24.95;16.62;;;;;;;-0.52;88.88;98702.59;1734650;81;21856;-61
2021/01/27 00:50:38;;;;;;;25.52;15.63;;;;;;;-0.51;89.02;98711.95;1737298;82;21198;-61
2021/01/27 00:53:06;;;;;;;24.30;16.25;;;;;;;-0.53;88.91;98704.69;1736804;81;21191;-61
2021/01/27 00:55:36;;;;;;;23.80;15.68;;;;;;;-0.55;88.99;98707.67;1734712;82;21397;-60
2021/01/27 00:58:04;;;;;;;27.20;15.75;;;;;;;-0.57;89.05;98706.83;1737648;82;21104;-60
2021/01/27 01:00:35;;;;;;;23.67;16.15;;;;;;;-0.59;88.79;98715.77;1735461;82;21136;-60
2021/01/27 01:03:05;;;;;;;23.18;15.58;;;;;;;-0.57;88.71;98713.22;1714721;82;21142;-60
2021/01/27 01:05:38;;;;;;;25.48;15.60;;;;;;;-0.57;88.87;98717.05;1734723;82;21211;-61
2021/01/27 01:08:07;;;;;;;23.45;15.48;;;;;;;-0.58;88.89;98716.62;1735454;81;21685;-61
2021/01/27 01:10:38;;;;;;;21.07;15.48;;;;;;;-0.59;88.99;98713.65;1736110;81;21577;-60
2021/01/27 01:13:08;;;;;;;23.80;15.08;;;;;;;-0.61;89.02;98718.73;1736034;81;21074;-61
2021/01/27 01:15:36;;;;;;;24.92;16.73;;;;;;;-0.62;89.15;98714.91;1734688;81;21206;-61
2021/01/27 01:18:05;;;;;;;27.07;17.45;;;;;;;-0.63;89.23;98710.66;1736326;82;22897;-61
2021/01/27 01:20:34;;;;;;;27.93;17.50;;;;;;;-0.65;89.37;98727.67;1735689;81;22359;-61
2021/01/27 01:23:02;;;;;;;26.62;16.45;;;;;;;-0.67;89.49;98723.00;1735307;81;21139;-60
2021/01/27 01:25:31;;;;;;;24.27;16.32;;;;;;;-0.69;89.49;98729.78;1734982;81;21076;-61
2021/01/27 01:27:59;;;;;;;27.27;17.23;;;;;;;-0.72;89.46;98720.44;1736234;82;21651;-61
2021/01/27 01:30:36;;;;;;;26.80;16.55;;;;;;;-0.76;89.28;98729.34;1736862;81;21080;-60
2021/01/27 01:33:11;;;;;;;24.45;16.10;;;;;;;-0.81;89.15;98726.81;1738642;82;21364;-60
2021/01/27 01:35:41;;;;;;;25.30;16.47;;;;;;;-0.86;89.03;98720.41;1734951;82;21549;-63
2021/01/27 01:38:08;;;;;;;25.30;16.23;;;;;;;-0.90;89.08;98716.59;1735436;82;21306;-61
2021/01/27 01:40:43;;;;;;;24.27;15.93;;;;;;;-0.92;89.06;98724.64;1736970;82;21219;-61
2021/01/27 01:43:27;;;;;;;23.10;15.67;;;;;;;-0.94;89.15;98718.27;1737810;81;21104;-60
2021/01/27 01:46:04;;;;;;;25.77;16.55;;;;;;;-0.97;89.00;98717.00;1735468;81;21155;-61
2021/01/27 01:48:42;;;;;;;26.48;16.37;;;;;;;-0.99;88.95;98717.82;1738653;81;21163;-60
2021/01/27 01:51:31;;;;;;;29.32;19.12;;;;;;;-1.02;88.97;98719.95;1731760;81;21132;-60
2021/01/27 01:54:23;;;;;;;23.18;13.98;;;;;;;-1.05;88.87;98716.13;1737186;81;21180;-61
2021/01/27 01:56:58;;;;;;;23.62;15.18;;;;;;;-1.07;88.62;98715.25;1736968;82;21403;-60
2021/01/27 01:59:26;;;;;;;23.12;14.85;;;;;;;-1.09;88.62;98723.34;1736433;82;21382;-59
2021/01/27 02:02:00;;;;;;;21.33;14.55;;;;;;;-1.13;88.54;98723.77;1737273;82;21290;-60
2021/01/27 02:04:36;;;;;;;23.07;16.35;;;;;;;-1.13;88.49;98726.74;1708724;82;21102;-59
2021/01/27 02:07:03;;;;;;;24.32;16.50;;;;;;;-1.16;88.37;98722.89;1735908;81;21164;-60
2021/01/27 02:09:32;;;;;;;20.65;14.13;;;;;;;-1.18;88.30;98719.49;1706603;82;21298;-60
2021/01/27 02:12:41;;;;;;;24.12;14.45;;;;;;;-1.20;88.26;98716.09;1734870;82;21338;-60
2021/01/27 02:15:30;;;;;;;20.60;14.05;;;;;;;-1.24;88.21;98714.37;1737260;81;21084;-60
2021/01/27 02:18:35;;;;;;;21.52;15.63;;;;;;;-1.30;88.28;98724.11;1735051;82;21088;-59
2021/01/27 02:21:20;;;;;;;35.65;20.20;;;;;;;-1.34;88.41;98726.23;1734875;81;21200;-60
2021/01/27 02:24:27;;;;;;;23.15;14.63;;;;;;;-1.37;88.67;98731.31;1736964;81;21086;-59
2021/01/27 02:27:17;;;;;;;21.12;12.70;;;;;;;-1.36;88.88;98729.61;1737592;81;22093;-59
2021/01/27 02:30:24;;;;;;;22.15;13.93;;;;;;;-1.33;88.89;98725.81;1735694;82;21155;-60
2021/01/27 02:33:23;;;;;;;19.80;13.40;;;;;;;-1.33;88.73;98727.94;1734669;81;21128;-59
2021/01/27 02:36:18;;;;;;;22.50;13.58;;;;;;;-1.31;88.78;98727.94;1665624;85;21171;-60
2021/01/27 02:39:11;;;;;;;21.95;13.80;;;;;;;-1.31;88.78;98729.22;1666907;85;21247;-59
2021/01/27 02:42:01;;;;;;;20.20;12.73;;;;;;;-1.27;88.71;98724.57;1890142;76;28071;-60
2021/01/27 02:44:34;;;;;;;19.65;12.73;;;;;;;-1.30;88.46;98730.91;1782802;80;21163;-60
2021/01/27 02:47:03;;;;;;;19.55;13.13;;;;;;;-1.28;88.32;98733.07;1812057;79;21130;-59
2021/01/27 02:49:44;;;;;;;20.08;12.60;;;;;;;-1.29;88.24;98728.79;1782691;80;21138;-59
2021/01/27 02:52:25;;;;;;;20.68;13.28;;;;;;;-1.29;88.02;98735.16;1814978;79;21064;-58
2021/01/27 02:55:02;;;;;;;19.17;12.63;;;;;;;-1.31;87.80;98728.79;1782771;80;21081;-59
2021/01/27 02:57:41;;;;;;;17.85;11.83;;;;;;;-1.35;87.82;98730.92;1815066;79;21541;-59
2021/01/27 03:00:21;;;;;;;18.62;12.13;;;;;;;-1.36;87.82;98732.16;1782796;80;21343;-59
2021/01/27 03:03:16;;;;;;;17.92;12.63;;;;;;;-1.41;87.93;98730.46;1814782;79;21572;-60
2021/01/27 03:05:49;;;;;;;19.73;12.93;;;;;;;-1.40;87.76;98735.98;1782902;80;21519;-59
2021/01/27 03:08:25;;;;;;;18.65;12.80;;;;;;;-1.41;87.71;98735.98;1814881;79;21158;-58
2021/01/27 03:11:29;;;;;;;18.50;13.10;;;;;;;-1.41;87.83;98734.71;1782761;80;21054;-58
2021/01/27 03:13:57;;;;;;;20.57;13.58;;;;;;;-1.42;87.80;98740.23;1814806;79;22407;-59
2021/01/27 03:16:35;;;;;;;19.65;12.90;;;;;;;-1.43;87.68;98740.23;1782494;80;21090;-59
2021/01/27 03:19:14;;;;;;;21.42;13.15;;;;;;;-1.44;87.68;98745.72;1814812;79;21049;-58
2021/01/27 03:21:46;;;;;;;19.92;12.78;;;;;;;-1.45;87.74;98749.13;1782803;80;21086;-59
2021/01/27 03:24:18;;;;;;;31.75;18.40;;;;;;;-1.46;87.78;98747.42;1814584;79;21077;-59
2021/01/27 03:27:03;;;;;;;24.02;15.75;;;;;;;-1.47;87.90;98752.09;1782780;80;21185;-59
2021/01/27 03:29:53;;;;;;;20.72;13.10;;;;;;;-1.48;87.94;98746.58;1814923;79;21117;-58
2021/01/27 03:32:41;;;;;;;18.40;12.88;;;;;;;-1.47;87.89;98749.55;1782808;80;21154;-58
2021/01/27 03:35:34;;;;;;;19.60;13.08;;;;;;;-1.49;88.06;98751.25;1814844;79;21144;-58
2021/01/27 03:38:25;;;;;;;21.48;13.20;;;;;;;-1.48;88.24;98745.30;1782769;80;21062;-58
2021/01/27 03:40:56;;;;;;;23.35;14.83;;;;;;;-1.45;88.25;98742.75;1809234;79;21254;-59
2021/01/27 03:43:31;;;;;;;20.32;13.40;;;;;;;-1.44;88.11;98736.80;1772018;81;21094;-58
2021/01/27 03:46:28;;;;;;;21.20;12.88;;;;;;;-1.44;88.02;98736.80;1803670;79;21121;-58
2021/01/27 03:49:16;;;;;;;17.20;12.18;;;;;;;-1.40;88.15;98737.26;1772014;81;21082;-58
2021/01/27 03:51:49;;;;;;;18.52;12.40;;;;;;;-1.36;87.96;98738.53;1803653;79;21058;-58
2021/01/27 03:54:18;;;;;;;20.35;13.43;;;;;;;-1.38;87.84;98737.69;1771490;81;22237;-58
2021/01/27 03:57:06;;;;;;;19.20;12.50;;;;;;;-1.41;87.90;98740.66;1803117;79;21073;-59
2021/01/27 03:59:33;;;;;;;22.85;14.03;;;;;;;-1.40;87.97;98737.69;1769076;81;21078;-59
2021/01/27 04:02:01;;;;;;;23.10;15.68;;;;;;;-1.41;87.93;98730.46;1803142;79;21577;-59
2021/01/27 04:04:29;;;;;;;19.73;13.38;;;;;;;-1.42;88.10;98733.86;1771482;81;21578;-59
2021/01/27 04:06:58;;;;;;;20.70;13.68;;;;;;;-1.43;88.14;98730.89;1803135;79;21381;-60
2021/01/27 04:09:26;;;;;;;22.22;13.50;;;;;;;-1.41;88.45;98732.16;1771470;81;21106;-59
2021/01/27 04:11:54;;;;;;;20.95;13.80;;;;;;;-1.40;88.53;98732.16;1803088;79;21169;-60
2021/01/27 04:14:21;;;;;;;24.87;15.72;;;;;;;-1.37;88.48;98727.91;1771441;81;21102;-60
2021/01/27 04:16:49;;;;;;;24.25;15.53;;;;;;;-1.36;88.66;98721.96;1803270;79;21164;-60
2021/01/27 04:19:17;;;;;;;27.52;17.73;;;;;;;-1.37;88.74;98716.02;1771620;81;22218;-60
2021/01/27 04:21:45;;;;;;;23.73;14.38;;;;;;;-1.37;88.82;98721.11;1803082;79;21073;-60
2021/01/27 04:24:13;;;;;;;24.07;14.58;;;;;;;-1.35;89.03;98724.97;1771342;81;21168;-58
2021/01/27 04:26:40;;;;;;;23.02;15.25;;;;;;;-1.35;89.09;98719.87;1803179;79;21141;-58
2021/01/27 04:29:08;;;;;;;22.10;15.10;;;;;;;-1.35;89.29;98722.42;1771431;81;21146;-61
2021/01/27 04:31:36;;;;;;;21.75;14.63;;;;;;;-1.35;89.33;98728.37;1803105;79;21853;-58
2021/01/27 04:34:05;;;;;;;22.98;14.18;;;;;;;-1.32;89.43;98728.36;1771344;81;21107;-59
2021/01/27 04:36:33;;;;;;;22.22;14.78;;;;;;;-1.31;89.61;98725.39;1803123;79;21470;-59
2021/01/27 04:39:01;;;;;;;21.55;14.93;;;;;;;-1.28;89.65;98733.92;1771183;81;21110;-59
2021/01/27 04:41:29;;;;;;;21.87;14.58;;;;;;;-1.26;89.72;98731.37;1809887;79;21616;-59
2021/01/27 04:43:58;;;;;;;22.58;15.48;;;;;;;-1.24;89.81;98730.52;1782140;79;22239;-59
2021/01/27 04:46:35;;;;;;;24.27;15.28;;;;;;;-1.20;89.83;98735.22;1814172;79;21092;-59
2021/01/27 04:49:20;;;;;;;22.55;16.27;;;;;;;-1.18;89.88;98739.47;1781904;80;21073;-59
2021/01/27 04:52:10;;;;;;;27.50;17.85;;;;;;;-1.16;89.95;98734.37;1814263;79;21163;-58
2021/01/27 04:55:24;;;;;;;23.47;15.08;;;;;;;-1.15;90.12;98739.89;1782188;80;21133;-59
2021/01/27 04:58:26;;;;;;;23.52;14.43;;;;;;;-1.15;90.28;98743.72;1814173;79;21078;-58
2021/01/27 05:01:22;;;;;;;25.92;16.60;;;;;;;-1.17;90.43;98733.94;1782019;80;21082;-58
2021/01/27 05:04:19;;;;;;;23.22;14.78;;;;;;;-1.18;90.52;98738.19;1813958;79;21581;-58
2021/01/27 05:06:49;;;;;;;23.67;15.65;;;;;;;-1.15;90.64;98741.16;1767904;80;21102;-58
2021/01/27 05:09:31;;;;;;;25.00;15.40;;;;;;;-1.09;90.65;98732.27;1814252;79;21129;-58
2021/01/27 05:11:59;;;;;;;23.92;15.32;;;;;;;-1.08;90.46;98739.06;1782113;80;21368;-59
2021/01/27 05:14:27;;;;;;;32.30;22.30;;;;;;;-1.08;90.47;98732.69;1814176;79;21184;-58
2021/01/27 05:16:55;;;;;;;38.08;26.48;;;;;;;-1.09;90.72;98741.19;1781968;80;21558;-59
2021/01/27 05:19:23;;;;;;;28.70;19.55;;;;;;;-1.07;90.78;98732.27;1731079;79;21058;-58
2021/01/27 05:21:56;;;;;;;27.20;17.10;;;;;;;-1.07;90.82;98743.31;1782235;80;21137;-59
2021/01/27 05:24:23;;;;;;;23.42;14.70;;;;;;;-1.06;90.87;98739.06;1814263;79;21341;-58
2021/01/27 05:27:05;;;;;;;23.95;15.95;;;;;;;-1.03;90.93;98743.77;1782077;79;21150;-58
2021/01/27 05:29:43;;;;;;;22.45;15.43;;;;;;;-1.03;90.98;98738.66;1814268;79;21081;-58
2021/01/27 05:32:20;;;;;;;25.15;16.82;;;;;;;-1.04;91.41;98734.84;1774909;80;21153;-57
2021/01/27 05:34:53;;;;;;;24.25;15.32;;;;;;;-1.06;91.72;98733.53;1814171;79;21098;-57
2021/01/27 05:37:29;;;;;;;23.52;15.75;;;;;;;-1.07;92.19;98731.84;1782108;80;21134;-58
2021/01/27 05:40:10;;;;;;;;;;;;;;;-1.08;92.33;98726.31;1816913;79;21514;-60
2021/01/27 05:42:39;;;;;;;27.42;16.00;;;;;;;-1.08;92.39;98722.48;1801347;79;20213;-58
2021/01/27 05:45:39;;;;;;;26.73;17.02;;;;;;;-1.08;92.69;98723.77;1771327;81;21612;-59
2021/01/27 05:48:33;;;;;;;25.62;18.00;;;;;;;-1.08;92.83;98733.96;1767360;81;21077;-58
2021/01/27 05:51:11;;;;;;;;;;;;;;;-1.08;92.99;98736.94;1748217;81;21169;-58
2021/01/27 05:53:39;;;;;;;26.70;16.97;;;;;;;-1.07;93.07;98739.48;1773376;81;20212;-58
2021/01/27 05:56:26;;;;;;;26.12;16.52;;;;;;;-1.06;93.24;98738.64;1792612;80;21045;-58
2021/01/27 05:59:05;;;;;;;26.23;16.82;;;;;;;-1.05;93.32;98732.72;1792889;80;21547;-60
2021/01/27 06:01:51;;;;;;;26.87;17.60;;;;;;;-1.02;93.40;98731.44;1769506;80;21645;-60
2021/01/27 06:04:24;;;;;;;27.65;17.65;;;;;;;-1.02;93.33;98725.05;1760614;81;21556;-59
2021/01/27 06:06:55;;;;;;;31.02;18.82;;;;;;;-1.00;93.34;98736.11;1777286;80;21109;-60
2021/01/27 06:09:47;;;;;;;36.53;20.40;;;;;;;-0.97;93.30;98731.03;1768165;80;21619;-60
2021/01/27 06:12:24;;;;;;;33.60;19.73;;;;;;;-0.97;93.23;98734.86;1760518;81;21198;-59
2021/01/27 06:15:10;;;;;;;42.23;22.00;;;;;;;-0.96;93.20;98732.73;1784859;80;21451;-58
2021/01/27 06:17:47;;;;;;;35.65;20.40;;;;;;;-0.96;93.17;98731.45;1791544;80;21194;-60
2021/01/27 06:20:29;;;;;;;37.63;23.38;;;;;;;-0.94;93.14;98734.85;1788902;80;21228;-60
2021/01/27 06:23:12;;;;;;;27.42;18.87;;;;;;;-0.93;93.17;98731.88;1789627;80;21481;-60
2021/01/27 06:26:06;;;;;;;46.33;25.37;;;;;;;-0.91;93.16;98736.55;1777012;80;21131;-59
2021/01/27 06:29:12;;;;;;;34.08;19.87;;;;;;;-0.89;93.07;98738.27;1784494;80;21139;-60
2021/01/27 06:32:19;;;;;;;32.28;20.15;;;;;;;-0.85;92.99;98737.41;1790613;78;21183;-60
2021/01/27 06:35:07;;;;;;;34.35;20.43;;;;;;;-0.80;92.87;98730.20;1759561;81;21158;-60
2021/01/27 06:37:46;;;;;;;31.90;19.55;;;;;;;-0.75;92.80;98735.75;1760333;81;21138;-60
2021/01/27 06:40:36;;;;;;;32.65;19.25;;;;;;;-0.74;92.62;98732.77;1760062;81;21174;-59
2021/01/27 06:43:32;;;;;;;32.35;19.52;;;;;;;-0.73;92.54;98734.48;1760557;81;21098;-58
2021/01/27 06:46:14;;;;;;;27.00;17.73;;;;;;;-0.70;92.44;98736.59;1764439;80;21491;-60
2021/01/27 06:49:29;;;;;;;30.90;19.02;;;;;;;-0.67;92.27;98737.04;1773920;80;22277;-59
2021/01/27 06:52:09;;;;;;;34.70;19.80;;;;;;;-0.64;92.01;98739.16;1786280;80;21032;-60
2021/01/27 06:55:20;;;;;;;35.90;21.33;;;;;;;-0.62;91.94;98740.42;1749967;80;21603;-60
2021/01/27 06:58:22;;;;;;;28.95;19.42;;;;;;;-0.57;91.75;98741.30;1761030;81;21143;-60
2021/01/27 07:01:28;;;;;;;27.20;17.25;;;;;;;-0.52;91.68;98745.14;1768773;80;21205;-59
2021/01/27 07:04:21;;;;;;;30.68;17.77;;;;;;;-0.45;91.45;98737.48;1789005;80;21049;-60
2021/01/27 07:07:23;;;;;;;25.20;15.88;;;;;;;-0.36;91.17;98741.74;1760886;80;21151;-60
2021/01/27 07:10:26;;;;;;;28.40;17.37;;;;;;;-0.34;90.73;98738.33;1759645;81;21678;-59
2021/01/27 07:13:28;;;;;;;29.00;17.92;;;;;;;-0.34;90.38;98740.03;1759356;81;21155;-59
2021/01/27 07:16:11;;;;;;;28.07;17.87;;;;;;;-0.38;90.04;98734.09;1766527;80;21601;-60
2021/01/27 07:19:35;;;;;;;28.52;17.70;;;;;;;-0.37;89.84;98740.04;1761181;80;21175;-59
2021/01/27 07:22:15;;;;;;;27.13;17.40;;;;;;;-0.32;89.72;98734.48;1782981;78;21179;-59
2021/01/27 07:25:13;;;;;;;28.98;18.87;;;;;;;-0.26;89.53;98737.47;1785546;80;21119;-59
2021/01/27 07:27:56;;;;;;;35.70;19.35;;;;;;;-0.20;89.32;98731.94;1772030;80;21120;-61
2021/01/27 07:30:30;;;;;;;24.32;17.40;;;;;;;-0.09;89.04;98726.81;1773170;81;21342;-59
2021/01/27 07:33:02;;;;;;;25.75;17.10;;;;;;;0.05;88.77;98731.47;1777390;80;21725;-59
2021/01/27 07:35:46;;;;;;;32.30;19.52;;;;;;;0.14;88.43;98730.60;1778279;78;21554;-60
2021/01/27 07:38:19;;;;;;;30.52;20.40;;;;;;;0.20;88.36;98727.61;1782013;78;21448;-60
2021/01/27 07:40:58;;;;;;;30.68;19.92;;;;;;;0.27;87.93;98732.28;1781362;78;21124;-59
2021/01/27 07:43:52;;;;;;;40.35;23.38;;;;;;;0.28;87.81;98731.42;1775595;78;22235;-60
2021/01/27 07:46:39;;;;;;;26.23;18.62;;;;;;;0.30;87.73;98738.66;1771044;78;21123;-61
2021/01/27 07:49:08;;;;;;;31.00;19.42;;;;;;;0.26;87.15;98737.83;1766879;80;21168;-60
2021/01/27 07:51:45;;;;;;;26.35;17.65;;;;;;;0.21;87.43;98735.70;1720734;82;21208;-60
2021/01/27 07:54:24;;;;;;;29.57;17.82;;;;;;;0.14;87.39;98728.89;1728901;82;21174;-60
2021/01/27 07:57:23;;;;;;;30.45;19.35;;;;;;;0.13;87.78;98727.63;1870773;75;22084;-59
2021/01/27 07:59:57;;;;;;;25.75;18.30;;;;;;;0.12;87.75;98728.05;1837915;77;21167;-59
2021/01/27 08:02:30;;;;;;;24.00;17.27;;;;;;;0.19;87.73;98728.47;1829798;77;21265;-59
2021/01/27 08:05:06;;;;;;;26.70;17.42;;;;;;;0.25;87.54;98721.22;1831976;77;21155;-63
2021/01/27 08:07:39;;;;;;;26.05;17.62;;;;;;;0.28;87.41;98728.87;1839886;77;21147;-59
2021/01/27 08:10:25;;;;;;;27.98;20.12;;;;;;;0.32;87.31;98732.28;1832376;77;21164;-60
2021/01/27 08:12:59;;;;;;;23.57;17.65;;;;;;;0.38;87.37;98728.01;1838940;76;21765;-61
2021/01/27 08:15:33;;;;;;;25.75;18.98;;;;;;;0.60;87.29;98727.91;1842811;77;21204;-62
2021/01/27 08:18:13;;;;;;;26.57;18.52;;;;;;;0.76;86.55;98730.42;1855332;77;22045;-61
2021/01/27 08:20:44;;;;;;;26.87;17.92;;;;;;;0.87;86.15;98735.47;1764167;78;21214;-60
2021/01/27 08:23:36;;;;;;;30.15;20.10;;;;;;;0.87;85.71;98738.03;1781098;79;21194;-61
2021/01/27 08:26:05;;;;;;;28.55;18.20;;;;;;;0.78;85.89;98736.37;1800983;79;21639;-58
2021/01/27 08:28:42;;;;;;;31.75;20.50;;;;;;;0.69;86.03;98741.53;1785053;79;21720;-60
2021/01/27 08:31:19;;;;;;;32.67;20.82;;;;;;;0.63;86.29;98744.11;1769338;79;21169;-58
2021/01/27 08:33:55;;;;;;;32.30;20.48;;;;;;;0.62;86.73;98747.95;1779144;79;21119;-60
2021/01/27 08:36:35;;;;;;;32.98;21.10;;;;;;;0.67;86.71;98748.34;1786688;79;21203;-61
2021/01/27 08:39:11;;;;;;;23.80;17.17;;;;;;;0.71;86.83;98751.33;1797126;79;21215;-59
2021/01/27 08:42:19;;;;;;;28.47;19.25;;;;;;;0.75;86.75;98750.44;1797194;79;22342;-60
2021/01/27 08:44:47;;;;;;;27.07;18.00;;;;;;;0.76;86.55;98750.89;1790471;79;21124;-59
2021/01/27 08:47:20;;;;;;;27.17;18.67;;;;;;;0.74;86.76;98753.86;1743143;79;21416;-62
2021/01/27 08:49:58;;;;;;;27.10;18.57;;;;;;;0.79;86.40;98754.70;1766522;80;21122;-60
2021/01/27 08:52:36;;;;;;;23.92;17.30;;;;;;;0.82;86.09;98758.51;1773963;79;21117;-59
2021/01/27 08:55:35;;;;;;;25.43;19.05;;;;;;;0.88;85.92;98755.08;1782889;79;21352;-60
2021/01/27 08:58:39;;;;;;;25.15;17.62;;;;;;;0.97;85.87;98749.06;1764529;80;22157;-61
2021/01/27 09:01:25;;;;;;;26.17;18.50;;;;;;;1.02;85.81;98757.15;1767510;79;21096;-63
2021/01/27 09:03:56;;;;;;;28.05;18.50;;;;;;;1.09;85.28;98763.09;1767690;80;21397;-60
2021/01/27 09:06:45;;;;;;;26.23;17.65;;;;;;;1.04;84.71;98761.83;1765159;79;21231;-61
2021/01/27 09:09:23;;;;;;;26.82;17.25;;;;;;;1.00;84.87;98762.72;1772726;79;21381;-61
2021/01/27 09:12:01;;;;;;;24.27;17.17;;;;;;;1.05;85.04;98768.64;1770035;79;21541;-63
2021/01/27 09:14:29;;;;;;;23.05;17.62;;;;;;;1.11;84.77;98766.05;1769497;80;21189;-61
2021/01/27 09:16:58;;;;;;;25.62;17.92;;;;;;;1.16;84.31;98770.31;1767489;80;21768;-59
2021/01/27 09:19:29;;;;;;;27.95;18.17;;;;;;;1.17;84.25;98765.61;1772424;79;21160;-59
2021/01/27 09:22:21;;;;;;;27.65;19.20;;;;;;;1.20;84.33;98765.15;1768186;80;21661;-59
2021/01/27 09:24:56;;;;;;;22.80;17.42;;;;;;;1.27;84.01;98764.25;1750034;80;21163;-60
2021/01/27 09:27:28;;;;;;;24.05;17.35;;;;;;;1.31;83.80;98768.52;1749486;80;21739;-64
2021/01/27 09:30:13;;;;;;;21.27;16.27;;;;;;;1.37;83.88;98765.07;1754152;81;21172;-60
2021/01/27 09:32:41;;;;;;;21.52;16.12;;;;;;;1.47;84.04;98760.73;1782570;79;21144;-62
2021/01/27 09:35:22;;;;;;;24.67;17.57;;;;;;;1.54;83.60;98764.52;1784233;79;21435;-64
2021/01/27 09:37:57;;;;;;;23.42;17.07;;;;;;;1.63;83.22;98765.73;1768576;79;21191;-65
2021/01/27 09:40:34;;;;;;;22.55;16.57;;;;;;;1.70;83.17;98761.41;1781153;79;21190;-63
2021/01/27 09:43:09;;;;;;;26.77;18.35;;;;;;;1.73;82.93;98760.09;1777140;79;21195;-62
2021/01/27 09:45:39;;;;;;;23.40;16.80;;;;;;;1.76;82.79;98761.38;1781934;79;21132;-60
2021/01/27 09:48:08;;;;;;;27.40;19.70;;;;;;;1.79;82.60;98760.05;1796764;79;21378;-61
2021/01/27 09:50:38;;;;;;;22.10;17.15;;;;;;;1.82;82.26;98752.36;1751852;81;21662;-64
2021/01/27 09:53:06;;;;;;;23.62;17.37;;;;;;;1.78;82.29;98758.36;1769138;79;21199;-64
2021/01/27 09:55:35;;;;;;;23.42;17.45;;;;;;;1.79;82.19;98756.64;1779738;79;21133;-62
2021/01/27 09:58:04;;;;;;;21.75;17.60;;;;;;;1.82;82.43;98761.33;1775636;79;21191;-61
2021/01/27 10:00:35;;;;;;;24.95;18.52;;;;;;;1.96;82.22;98762.47;1773985;80;21450;-62
2021/01/27 10:03:29;;;;;;;22.90;17.98;;;;;;;2.05;81.82;98757.72;1778713;79;21591;-60
2021/01/27 10:05:58;;;;;;;21.52;16.75;;;;;;;2.06;81.11;98759.41;1739006;81;21180;-60
2021/01/27 10:08:37;;;;;;;25.52;18.45;;;;;;;1.96;81.17;98756.06;1769792;80;21223;-59
2021/01/27 10:11:29;;;;;;;21.82;15.85;;;;;;;1.93;81.62;98756.09;1807599;79;21132;-60
2021/01/27 10:14:11;;;;;;;23.52;18.12;;;;;;;1.94;81.43;98758.64;1774690;80;21269;-64
2021/01/27 10:16:59;;;;;;;20.52;15.60;;;;;;;1.96;81.42;98765.03;1767258;80;21133;-68
2021/01/27 10:19:42;;;;;;;21.27;16.65;;;;;;;1.97;81.14;98767.19;1801281;79;21218;-70
2021/01/27 10:22:10;;;;;;;19.62;14.70;;;;;;;1.94;81.58;98766.33;1762370;80;21145;-62
2021/01/27 10:24:49;;;;;;;22.52;16.37;;;;;;;1.97;81.42;98765.91;1744635;79;21109;-67
2021/01/27 10:27:24;;;;;;;22.70;17.90;;;;;;;1.97;81.65;98764.20;1768269;79;21600;-65
2021/01/27 10:29:57;;;;;;;21.70;16.10;;;;;;;1.96;81.42;98767.59;1768544;80;21181;-67
2021/01/27 10:32:33;;;;;;;20.77;16.55;;;;;;;1.90;81.63;98760.83;1771516;79;21196;-69
2021/01/27 10:35:07;;;;;;;22.62;17.12;;;;;;;1.90;81.66;98748.45;1778562;80;21188;-68
2021/01/27 10:37:43;;;;;;;21.45;15.48;;;;;;;1.90;81.81;98751.86;1734968;80;21168;-66
2021/01/27 10:40:29;;;;;;;22.90;16.85;;;;;;;1.98;81.63;98749.66;1761449;80;21417;-66
2021/01/27 10:43:02;;;;;;;20.92;16.35;;;;;;;1.99;81.42;98741.95;1762574;80;21174;-65
2021/01/27 10:45:42;;;;;;;19.40;15.68;;;;;;;2.04;81.06;98745.73;1738873;80;21648;-62
2021/01/27 10:48:18;;;;;;;17.02;13.93;;;;;;;2.06;81.26;98740.19;1766568;80;21171;-64
2021/01/27 10:50:52;;;;;;;16.52;13.95;;;;;;;2.12;80.60;98738.85;1771576;79;21136;-65
2021/01/27 10:53:22;;;;;;;19.77;16.12;;;;;;;2.13;80.42;98743.11;1748128;80;21253;-65
2021/01/27 10:55:54;;;;;;;18.67;15.68;;;;;;;2.10;80.28;98749.53;1777296;79;21094;-64
2021/01/27 10:58:22;;;;;;;17.87;15.23;;;;;;;2.08;80.48;98746.14;1763937;79;21194;-61
2021/01/27 11:00:50;;;;;;;19.05;14.98;;;;;;;2.10;80.61;98747.81;1726730;82;21146;-60
2021/01/27 11:03:18;;;;;;;18.73;14.87;;;;;;;2.11;80.30;98744.38;1750717;80;21157;-60
2021/01/27 11:05:47;;;;;;;18.52;14.28;;;;;;;2.11;79.94;98749.95;1746646;81;22259;-61
2021/01/27 11:08:35;;;;;;;20.62;15.28;;;;;;;2.13;80.13;98747.80;1776285;79;21132;-61
2021/01/27 11:11:04;;;;;;;20.15;16.07;;;;;;;2.21;79.89;98751.58;1756701;80;21743;-59
2021/01/27 11:13:35;;;;;;;19.23;15.32;;;;;;;2.25;79.71;98749.38;1777816;80;21185;-58
2021/01/27 11:16:05;;;;;;;20.20;14.05;;;;;;;2.30;79.29;98747.62;1765099;79;21845;-58
2021/01/27 11:18:34;;;;;;;17.27;14.40;;;;;;;2.30;79.19;98746.78;1733896;82;21376;-59
2021/01/27 11:21:06;;;;;;;18.25;13.93;;;;;;;2.27;78.93;98761.78;1753767;79;21233;-59
2021/01/27 11:23:34;;;;;;;17.90;15.58;;;;;;;2.23;78.73;98754.97;1736945;82;21133;-60
2021/01/27 11:26:02;;;;;;;19.73;15.13;;;;;;;2.14;79.09;98761.03;1717199;83;21155;-59
2021/01/27 11:28:30;;;;;;;17.55;14.30;;;;;;;2.08;79.38;98756.39;1722881;82;21161;-61
2021/01/27 11:30:59;;;;;;;16.80;13.98;;;;;;;2.04;79.26;98762.00;1723258;82;21540;-60
2021/01/27 11:33:27;;;;;;;16.82;13.90;;;;;;;2.02;79.35;98757.29;1747366;82;21209;-61
2021/01/27 11:35:56;;;;;;;16.75;13.28;;;;;;;2.06;79.32;98759.41;1714479;81;21138;-63
2021/01/27 11:38:25;;;;;;;15.50;13.35;;;;;;;2.07;78.82;98762.39;1730166;81;21225;-61
2021/01/27 11:40:53;;;;;;;15.68;12.80;;;;;;;1.99;79.09;98752.20;1728796;81;21173;-62
2021/01/27 11:43:22;;;;;;;14.70;12.70;;;;;;;1.94;79.50;98762.92;1722675;81;21271;-61
2021/01/27 11:45:50;;;;;;;14.13;12.30;;;;;;;1.93;79.62;98756.95;1736597;80;21184;-62
2021/01/27 11:48:20;;;;;;;15.78;12.78;;;;;;;1.92;79.77;98754.41;1728480;80;21083;-61
2021/01/27 11:50:49;;;;;;;14.73;11.80;;;;;;;1.89;79.88;98760.41;1736875;80;21196;-60
2021/01/27 11:53:17;;;;;;;15.65;12.68;;;;;;;1.88;80.32;98757.84;1710541;83;21072;-60
2021/01/27 11:55:46;;;;;;;15.98;12.15;;;;;;;1.90;80.41;98760.83;1701473;83;23478;-60
2021/01/27 11:58:14;;;;;;;14.90;11.83;;;;;;;1.92;80.71;98758.25;1795151;78;21120;-63
2021/01/27 12:00:42;;;;;;;13.90;11.50;;;;;;;1.94;80.53;98756.52;1806524;79;21363;-60
2021/01/27 12:03:10;;;;;;;16.82;12.18;;;;;;;1.95;80.69;98757.77;1802348;78;21446;-61
2021/01/27 12:05:39;;;;;;;14.33;12.15;;;;;;;1.97;80.56;98755.22;1789159;78;21156;-60
2021/01/27 12:08:07;;;;;;;12.58;10.48;;;;;;;2.00;80.43;98751.34;1756923;80;21409;-60
2021/01/27 12:10:35;;;;;;;13.20;10.45;;;;;;;2.01;80.41;98750.91;1750890;80;21208;-61